Time;durP1;ratioP1;P1;durP2;ratioP2;P2;SDS_P1;SDS_P2;PMS_P1;PMS_P2;Temp;Humidity;BMP_temperature;BMP_pressure;BME280_temperature;BME280_humidity;BME280_pressure;Samples;Min_cycle;Max_cycle;Signal;HPM_P1;HPM_P2
2023/11/05 00:08:16;;;;;;;10.68;3.17;;;9.60;99.90;;;;;;20372263;29;20440;-42
2023/11/05 00:18:16;;;;;;;10.32;2.15;;;9.70;99.90;;;;;;20378596;29;20040;-42
2023/11/05 00:28:17;;;;;;;13.82;1.90;;;9.70;99.90;;;;;;20389361;29;20044;-42
2023/11/05 00:38:17;;;;;;;7.82;1.40;;;9.80;99.90;;;;;;20394920;29;20035;-42
2023/11/05 00:48:18;;;;;;;13.75;1.88;;;9.90;99.90;;;;;;20395038;29;20040;-42
2023/11/05 00:58:19;;;;;;;12.88;2.05;;;9.90;99.90;;;;;;20391556;29;20039;-42
2023/11/05 01:08:20;;;;;;;9.55;2.08;;;9.70;99.90;;;;;;20394431;29;20055;-42
2023/11/05 01:18:20;;;;;;;16.65;2.05;;;9.80;99.90;;;;;;20391440;29;20481;-42
2023/11/05 01:28:21;;;;;;;14.57;2.05;;;9.80;99.90;;;;;;20388970;29;20056;-42
2023/11/05 01:38:21;;;;;;;11.35;2.08;;;10.00;99.90;;;;;;20390350;29;20039;-40
2023/11/05 01:48:22;;;;;;;10.88;1.60;;;10.00;99.40;;;;;;20389654;29;20126;-40
2023/11/05 01:58:23;;;;;;;10.23;2.08;;;10.10;94.10;;;;;;20387475;29;20059;-40
2023/11/05 02:08:24;;;;;;;14.98;1.73;;;10.20;89.90;;;;;;20387701;29;20558;-42
2023/11/05 02:18:24;;;;;;;13.63;1.80;;;10.20;89.90;;;;;;20386860;29;20500;-42
2023/11/05 02:28:25;;;;;;;11.52;1.77;;;10.20;94.10;;;;;;20383906;29;20044;-42
2023/11/05 02:38:25;;;;;;;11.97;1.50;;;10.20;88.00;;;;;;20387374;29;20358;-42
2023/11/05 02:48:26;;;;;;;13.95;3.20;;;10.20;99.90;;;;;;20385759;29;20459;-42
2023/11/05 02:58:26;;;;;;;9.00;1.63;;;10.20;99.90;;;;;;20383077;29;20516;-42
2023/11/05 03:08:27;;;;;;;9.95;1.83;;;10.10;99.90;;;;;;20381558;29;20055;-42
2023/11/05 03:18:35;;;;;;;6.53;1.50;;;10.20;99.90;;;;;;20898918;27;21163;-42
2023/11/05 03:28:36;;;;;;;5.28;0.95;;;10.00;99.90;;;;;;20885507;28;20029;-42
2023/11/05 03:38:37;;;;;;;5.22;1.13;;;9.80;99.90;;;;;;21230982;23;20179;-41
2023/11/05 03:48:37;;;;;;;6.57;1.63;;;9.80;99.90;;;;;;20837375;28;20034;-40
2023/11/05 03:58:39;;;;;;;6.20;1.63;;;9.80;99.90;;;;;;20821044;28;20068;-41
2023/11/05 04:08:39;;;;;;;6.30;2.92;;;9.80;99.90;;;;;;20819767;28;20057;-41
2023/11/05 04:18:41;;;;;;;10.63;3.83;;;9.90;99.90;;;;;;20818335;28;20560;-41
2023/11/05 04:28:41;;;;;;;6.38;2.20;;;9.90;99.90;;;;;;20771142;28;20124;-41
2023/11/05 04:38:42;;;;;;;11.20;2.38;;;9.90;99.90;;;;;;20759512;28;20045;-41
2023/11/05 04:48:43;;;;;;;6.55;2.03;;;9.90;99.90;;;;;;20759051;28;20045;-41
2023/11/05 04:58:44;;;;;;;10.20;2.90;;;9.90;99.90;;;;;;20776446;28;20060;-41
2023/11/05 05:08:45;;;;;;;6.93;1.85;;;10.00;99.90;;;;;;20758830;28;20029;-41
2023/11/05 05:18:46;;;;;;;7.55;2.35;;;10.10;99.90;;;;;;20757317;28;20029;-40
2023/11/05 05:28:47;;;;;;;8.40;2.10;;;10.10;99.90;;;;;;20756450;28;20355;-41
2023/11/05 05:38:48;;;;;;;6.60;1.85;;;10.10;99.90;;;;;;20754552;28;20107;-41
2023/11/05 05:48:48;;;;;;;10.43;2.75;;;10.00;99.90;;;;;;20755694;28;20389;-41
2023/11/05 05:58:49;;;;;;;8.38;2.22;;;10.10;99.90;;;;;;20754721;28;20038;-41
2023/11/05 06:08:50;;;;;;;6.05;1.73;;;10.10;99.90;;;;;;20743930;28;20041;-41
2023/11/05 06:18:50;;;;;;;6.63;2.00;;;10.10;99.90;;;;;;20671454;28;20042;-41
2023/11/05 06:28:51;;;;;;;8.65;2.17;;;10.00;99.90;;;;;;20672763;28;20042;-41
2023/11/05 06:38:51;;;;;;;6.80;2.30;;;10.10;99.90;;;;;;20720010;28;20045;-41
2023/11/05 06:48:52;;;;;;;7.18;2.00;;;10.10;99.90;;;;;;20750898;28;20067;-41
2023/11/05 06:58:52;;;;;;;7.28;2.05;;;10.10;99.90;;;;;;20752363;28;20063;-41
2023/11/05 07:08:53;;;;;;;11.95;2.25;;;10.00;99.90;;;;;;20751349;28;20029;-41
2023/11/05 07:18:53;;;;;;;7.07;2.20;;;10.10;99.90;;;;;;20747734;28;20034;-41
2023/11/05 07:28:55;;;;;;;10.03;3.37;;;10.20;99.90;;;;;;20748780;28;20029;-41
2023/11/05 07:38:56;;;;;;;10.45;2.45;;;10.30;99.90;;;;;;20745607;28;20524;-41
2023/11/05 07:48:57;;;;;;;11.65;2.50;;;10.50;99.90;;;;;;20754300;28;20404;-41
2023/11/05 07:58:57;;;;;;;8.45;2.40;;;10.50;99.90;;;;;;20753631;28;20038;-40
2023/11/05 08:08:58;;;;;;;12.00;2.92;;;10.50;99.90;;;;;;20762674;28;20042;-40
2023/11/05 08:18:59;;;;;;;9.80;3.40;;;10.40;99.90;;;;;;20762221;28;20562;-40
2023/11/05 08:29:02;;;;;;;9.30;2.85;;;10.60;99.90;;;;;;20761762;28;20039;-41
2023/11/05 08:39:04;;;;;;;10.63;3.42;;;10.60;99.90;;;;;;20760144;28;20050;-40
2023/11/05 08:49:04;;;;;;;12.38;3.60;;;10.70;99.90;;;;;;20760082;28;20041;-40
2023/11/05 08:59:05;;;;;;;13.48;3.58;;;10.80;99.90;;;;;;20759903;28;20571;-41
2023/11/05 09:09:07;;;;;;;15.25;4.10;;;10.70;99.90;;;;;;20756298;28;20068;-40
2023/11/05 09:19:08;;;;;;;10.52;3.30;;;10.90;99.90;;;;;;20755000;28;20037;-41
2023/11/05 09:29:09;;;;;;;10.77;3.75;;;11.00;99.90;;;;;;20759101;28;20034;-40
2023/11/05 09:39:10;;;;;;;10.00;3.35;;;11.20;99.90;;;;;;20757490;28;20095;-40
2023/11/05 09:49:12;;;;;;;9.13;3.85;;;11.30;99.90;;;;;;20752252;28;20038;-40
2023/11/05 09:59:13;;;;;;;12.50;3.90;;;11.50;99.90;;;;;;20755037;28;20192;-40
2023/11/05 10:09:14;;;;;;;9.13;3.17;;;11.50;99.90;;;;;;20752435;28;20062;-41
2023/11/05 10:19:15;;;;;;;6.50;2.97;;;11.30;99.90;;;;;;20752229;28;20045;-40
2023/11/05 10:29:17;;;;;;;5.53;3.17;;;11.20;99.90;;;;;;20753387;28;20476;-40
2023/11/05 10:39:18;;;;;;;8.75;3.38;;;11.00;99.90;;;;;;20751709;28;20052;-40
2023/11/05 10:49:19;;;;;;;7.88;3.53;;;11.00;99.90;;;;;;20751044;28;20038;-39
2023/11/05 10:59:37;;;;;;;6.93;1.63;;;11.10;99.90;;;;;;20748957;28;20045;-40
2023/11/05 11:09:39;;;;;;;6.32;1.80;;;11.10;99.90;;;;;;20749655;28;20034;-41
2023/11/05 11:19:42;;;;;;;5.53;1.70;;;11.10;99.90;;;;;;20749879;28;20072;-41
2023/11/05 11:29:45;;;;;;;8.73;2.20;;;11.80;99.90;;;;;;20732055;28;20508;-41
2023/11/05 11:39:47;;;;;;;5.25;1.65;;;11.80;99.90;;;;;;20757731;28;20061;-41
2023/11/05 11:49:47;;;;;;;9.07;2.70;;;11.70;99.90;;;;;;20759058;28;20061;-41
2023/11/05 11:59:49;;;;;;;5.53;2.15;;;11.80;99.90;;;;;;20758711;28;20037;-41
2023/11/05 12:09:56;;;;;;;7.50;2.65;;;11.70;99.90;;;;;;20754095;28;20064;-41
2023/11/05 12:19:57;;;;;;;8.63;2.58;;;11.70;99.40;;;;;;20758421;28;20132;-41
2023/11/05 12:29:58;;;;;;;7.22;2.25;;;11.80;91.00;;;;;;20757471;28;20037;-41
2023/11/05 12:39:59;;;;;;;7.75;1.90;;;11.80;99.80;;;;;;20755658;28;20343;-41
2023/11/05 12:49:59;;;;;;;7.78;2.42;;;11.80;99.90;;;;;;20756080;28;20050;-41
2023/11/05 13:00:00;;;;;;;4.93;1.48;;;12.10;99.90;;;;;;20753221;28;20037;-41
2023/11/05 13:10:04;;;;;;;6.97;1.30;;;12.10;99.90;;;;;;20752392;28;20049;-41
2023/11/05 13:20:08;;;;;;;8.25;1.38;;;11.90;99.90;;;;;;20753386;28;20488;-41
2023/11/05 13:30:09;;;;;;;8.63;1.50;;;11.90;99.90;;;;;;20750645;28;20127;-41
2023/11/05 13:40:10;;;;;;;7.72;1.48;;;11.60;99.90;;;;;;20751926;28;20046;-41
2023/11/05 13:50:11;;;;;;;6.97;1.87;;;11.60;99.90;;;;;;20749897;28;20052;-41
2023/11/05 14:00:13;;;;;;;7.30;1.95;;;11.50;99.90;;;;;;20750586;28;20808;-41
2023/11/05 14:10:14;;;;;;;10.18;1.85;;;11.40;99.90;;;;;;20750437;28;20038;-41
2023/11/05 14:20:15;;;;;;;15.90;2.95;;;11.30;99.90;;;;;;20748765;28;20061;-41
2023/11/05 14:30:16;;;;;;;4.85;1.83;;;11.30;99.90;;;;;;20749133;28;20067;-41
2023/11/05 14:40:17;;;;;;;10.20;2.78;;;11.30;99.90;;;;;;20747554;28;20535;-41
2023/11/05 14:50:17;;;;;;;10.52;2.20;;;11.30;96.50;;;;;;20745085;28;20044;-41
2023/11/05 15:00:19;;;;;;;13.77;2.30;;;11.30;87.10;;;;;;20747086;28;20033;-41
2023/11/05 15:10:20;;;;;;;10.45;1.98;;;11.30;67.10;;;;;;20736760;28;20049;-41
2023/11/05 15:20:21;;;;;;;10.35;2.28;;;11.20;58.70;;;;;;20742952;28;20039;-41
2023/11/05 15:30:21;;;;;;;6.80;1.58;;;11.20;63.10;;;;;;20745440;28;20045;-41
2023/11/05 15:40:22;;;;;;;10.23;1.83;;;11.20;50.40;;;;;;20745020;28;20045;-41
2023/11/05 15:50:25;;;;;;;10.55;2.75;;;11.30;51.80;;;;;;20743902;28;20577;-40
2023/11/05 16:00:26;;;;;;;13.00;2.80;;;11.00;93.70;;;;;;20744209;28;20034;-40
2023/11/05 16:10:26;;;;;;;9.02;2.38;;;10.90;99.90;;;;;;20741800;28;20353;-40
2023/11/05 16:20:28;;;;;;;12.38;2.28;;;10.80;99.90;;;;;;20746768;28;20033;-40
2023/11/05 16:30:32;;;;;;;10.48;2.25;;;10.80;99.90;;;;;;20756581;28;20132;-41
2023/11/05 16:40:35;;;;;;;9.32;2.35;;;10.90;91.50;;;;;;20756690;28;20566;-40
2023/11/05 16:50:36;;;;;;;8.25;3.03;;;11.10;50.90;;;;;;20756557;28;20404;-41
2023/11/05 17:00:36;;;;;;;12.48;1.95;;;11.10;44.90;;;;;;20753862;28;20037;-41
2023/11/05 17:10:37;;;;;;;8.98;1.83;;;11.10;32.70;;;;;;20752186;28;20064;-41
2023/11/05 17:20:38;;;;;;;9.65;1.85;;;11.10;17.60;;;;;;20754077;28;20488;-41
2023/11/05 17:30:40;;;;;;;9.50;2.30;;;11.10;15.00;;;;;;20750327;28;20177;-41
2023/11/05 17:40:40;;;;;;;8.20;2.50;;;11.10;13.20;;;;;;20752227;28;20119;-41
2023/11/05 17:50:41;;;;;;;9.13;2.03;;;11.00;16.50;;;;;;20751307;28;20370;-41
2023/11/05 18:00:41;;;;;;;8.50;1.90;;;10.70;21.40;;;;;;20752578;28;20120;-41
2023/11/05 18:10:42;;;;;;;7.18;1.77;;;10.80;6.40;;;;;;20747943;28;20038;-41
2023/11/05 18:20:42;;;;;;;7.35;1.90;;;10.80;4.60;;;;;;20743022;28;20501;-41
2023/11/05 18:30:43;;;;;;;7.73;2.03;;;10.80;1.00;;;;;;20755326;28;20037;-41
2023/11/05 18:40:44;;;;;;;5.68;1.70;;;10.70;1.00;;;;;;20745601;28;20440;-41
2023/11/05 18:50:44;;;;;;;8.75;2.05;;;10.70;1.00;;;;;;20745767;28;20042;-41
2023/11/05 19:00:45;;;;;;;6.82;1.83;;;10.70;1.00;;;;;;20746173;28;20059;-41
2023/11/05 19:10:46;;;;;;;6.53;1.90;;;10.70;1.00;;;;;;20743049;28;20045;-41
2023/11/05 19:20:49;;;;;;;10.25;2.05;;;10.60;1.00;;;;;;20747278;28;20437;-41
2023/11/05 19:30:50;;;;;;;7.10;1.70;;;10.60;1.00;;;;;;20743787;28;20556;-41
2023/11/05 19:40:51;;;;;;;7.30;1.75;;;10.40;1.00;;;;;;20743095;28;20124;-41
2023/11/05 19:50:52;;;;;;;8.63;2.03;;;10.60;1.00;;;;;;20732178;28;20037;-41
2023/11/05 20:00:53;;;;;;;7.28;2.10;;;10.70;1.00;;;;;;20731977;28;20075;-40
2023/11/05 20:10:54;;;;;;;6.88;1.60;;;10.50;1.00;;;;;;20719091;28;20045;-41
2023/11/05 20:20:57;;;;;;;4.60;1.10;;;10.80;1.00;;;;;;20718894;28;20038;-41
2023/11/05 20:30:57;;;;;;;5.50;2.25;;;10.90;1.00;;;;;;20725173;28;20037;-41
2023/11/05 20:40:58;;;;;;;7.07;1.60;;;10.80;1.00;;;;;;20730343;28;20049;-40
2023/11/05 20:50:59;;;;;;;6.57;1.92;;;10.90;1.00;;;;;;20727065;28;20453;-41
2023/11/05 21:00:59;;;;;;;6.47;1.70;;;10.70;1.00;;;;;;20719039;28;20030;-40
2023/11/05 21:11:04;;;;;;;7.88;1.60;;;10.60;1.00;;;;;;20724718;28;20144;-40
2023/11/05 21:21:05;;;;;;;4.05;1.25;;;10.50;10.60;;;;;;20740600;28;20041;-41
2023/11/05 21:31:06;;;;;;;6.53;1.30;;;10.40;21.30;;;;;;20737646;28;20052;-40
2023/11/05 21:41:06;;;;;;;5.05;0.80;;;10.60;18.30;;;;;;20741041;28;20514;-40
2023/11/05 21:51:07;;;;;;;2.90;0.93;;;10.70;13.00;;;;;;20735235;28;20128;-40
2023/11/05 22:01:07;;;;;;;4.80;1.00;;;10.50;21.50;;;;;;20738014;28;20207;-40
2023/11/05 22:11:08;;;;;;;5.70;0.80;;;10.20;57.50;;;;;;20736951;28;20132;-40
2023/11/05 22:21:10;;;;;;;3.65;1.10;;;9.90;90.50;;;;;;20736383;28;20090;-40
2023/11/05 22:31:11;;;;;;;4.85;1.77;;;9.70;99.90;;;;;;20737340;28;20091;-40
2023/11/05 22:41:11;;;;;;;10.15;3.15;;;9.80;99.90;;;;;;20731715;28;20041;-40
2023/11/05 22:51:17;;;;;;;5.90;2.13;;;9.90;99.90;;;;;;20724039;28;20608;-40
2023/11/05 23:01:18;;;;;;;10.00;2.65;;;10.00;99.90;;;;;;20715936;28;20049;-40
2023/11/05 23:11:20;;;;;;;7.17;2.03;;;10.00;99.90;;;;;;20711129;28;20183;-40
2023/11/05 23:21:21;;;;;;;11.82;2.47;;;10.10;99.90;;;;;;20714658;28;20272;-40
2023/11/05 23:31:21;;;;;;;8.65;2.33;;;10.10;99.90;;;;;;20729775;28;20168;-40
2023/11/05 23:41:22;;;;;;;12.98;2.80;;;9.90;99.90;;;;;;20738065;28;20054;-41
2023/11/05 23:51:22;;;;;;;12.50;2.35;;;9.90;99.90;;;;;;20732802;28;20041;-40
